Time;durP1;ratioP1;P1;durP2;ratioP2;P2;SDS_P1;SDS_P2;PMS_P1;PMS_P2;Temp;Humidity;BMP_temperature;BMP_pressure;BME280_temperature;BME280_humidity;BME280_pressure;Samples;Min_cycle;Max_cycle;Signal;HPM_P1;HPM_P2
2023/10/10 07:56:47;;;;;;;1.80;1.63;;;;;;;;;;5624712;23;20158;-70
2023/10/10 07:59:13;;;;;;;1.80;1.70;;;;;;;;;;4933180;29;20122;-72
2023/10/10 08:01:41;;;;;;;1.52;1.42;;;;;;;;;;4952651;28;20391;-70
2023/10/10 08:04:07;;;;;;;1.80;1.70;;;;;;;;;;4952450;29;20016;-73
2023/10/10 08:06:33;;;;;;;1.90;1.60;;;;;;;;;;4953370;28;20078;-73
2023/10/10 08:11:44;;;;;;;1.70;1.60;;;;;;;;;;4953263;29;20023;-72
2023/10/10 08:14:10;;;;;;;1.50;1.40;;;;;;;;;;4951949;29;20023;-71
2023/10/10 08:16:38;;;;;;;2.25;1.70;;;;;;;;;;4953059;29;20029;-72
2023/10/10 08:19:15;;;;;;;3.15;1.65;;;;;;;;;;4952040;28;20031;-72
2023/10/10 08:21:49;;;;;;;1.60;1.50;;;;;;;;;;4951928;29;20127;-71
2023/10/10 08:24:15;;;;;;;1.85;1.75;;;;;;;;;;4952403;29;20062;-71
2023/10/10 08:26:41;;;;;;;1.63;1.52;;;;;;;;;;4953039;29;20498;-72
2023/10/10 08:29:11;;;;;;;1.73;1.60;;;;;;;;;;4951859;29;20494;-71
2023/10/10 08:31:38;;;;;;;1.73;1.60;;;;;;;;;;4953350;29;20102;-70
2023/10/10 08:34:06;;;;;;;1.85;1.60;;;;;;;;;;4953108;29;20019;-72
2023/10/10 08:36:33;;;;;;;1.93;1.67;;;;;;;;;;4950796;28;20027;-74
2023/10/10 08:41:41;;;;;;;1.70;1.50;;;;;;;;;;4953284;29;20483;-71
2023/10/10 08:44:09;;;;;;;2.47;1.90;;;;;;;;;;4951377;29;20032;-72
2023/10/10 08:46:43;;;;;;;2.83;1.80;;;;;;;;;;4952220;28;20027;-71
2023/10/10 08:49:09;;;;;;;1.50;1.40;;;;;;;;;;4954193;29;20122;-71
2023/10/10 08:51:35;;;;;;;2.25;1.77;;;;;;;;;;4936679;29;20110;-72
2023/10/10 08:54:12;;;;;;;1.70;1.60;;;;;;;;;;4953958;28;20034;-74
2023/10/10 08:57:03;;;;;;;2.38;1.70;;;;;;;;;;4953600;28;20047;-71
2023/10/10 08:59:31;;;;;;;2.97;1.70;;;;;;;;;;4948673;28;20095;-69
2023/10/10 09:02:12;;;;;;;2.75;2.55;;;;;;;;;;4952652;28;20031;-69
2023/10/10 09:04:38;;;;;;;8.20;5.13;;;;;;;;;;4953699;28;20448;-69
2023/10/10 09:07:08;;;;;;;5.53;4.10;;;;;;;;;;4936214;29;20059;-69
2023/10/10 09:12:04;;;;;;;11.50;6.82;;;;;;;;;;4953097;29;20476;-68
2023/10/10 09:14:50;;;;;;;11.15;4.57;;;;;;;;;;4954969;28;20513;-69
2023/10/10 09:17:40;;;;;;;6.57;3.30;;;;;;;;;;4957110;29;20110;-69
2023/10/10 09:20:22;;;;;;;;;;;;;;;;;;4956794;29;20353;-70
2023/10/10 09:22:51;;;;;;;6.68;1.90;;;;;;;;;;4956350;29;19938;-67
2023/10/10 09:28:15;;;;;;;3.47;2.40;;;;;;;;;;4956660;29;20046;-68
2023/10/10 09:30:45;;;;;;;4.45;2.42;;;;;;;;;;4956609;29;20464;-67
2023/10/10 09:33:27;;;;;;;5.75;2.65;;;;;;;;;;4956624;29;20503;-70
2023/10/10 09:36:15;;;;;;;4.03;2.70;;;;;;;;;;4956916;29;20539;-69
2023/10/10 09:38:53;;;;;;;6.70;3.10;;;;;;;;;;4956885;29;20111;-70
2023/10/10 09:49:51;;;;;;;4.78;3.50;;;;;;;;;;4956767;29;20027;-70
2023/10/10 10:09:09;;;;;;;4.25;3.00;;;;;;;;;;4956483;29;20059;-70
2023/10/10 10:11:56;;;;;;;5.05;2.72;;;;;;;;;;4956307;29;20124;-69
2023/10/10 10:14:35;;;;;;;4.47;3.38;;;;;;;;;;4936424;28;20480;-68
2023/10/10 10:17:47;;;;;;;4.50;3.22;;;;;;;;;;4956268;29;20083;-70
2023/10/10 10:20:44;;;;;;;4.68;3.30;;;;;;;;;;4956156;28;20028;-69
2023/10/10 10:23:33;;;;;;;3.78;2.90;;;;;;;;;;4956163;29;20491;-69
2023/10/10 10:26:08;;;;;;;4.43;2.80;;;;;;;;;;4955224;28;20027;-67
2023/10/10 10:28:37;;;;;;;3.40;3.00;;;;;;;;;;4956318;29;20050;-70
2023/10/10 10:31:16;;;;;;;3.40;3.08;;;;;;;;;;4955999;29;20476;-70
2023/10/10 10:34:02;;;;;;;4.10;2.70;;;;;;;;;;4955944;29;20106;-68
2023/10/10 10:36:28;;;;;;;3.30;2.80;;;;;;;;;;4955945;29;20019;-69
2023/10/10 10:41:42;;;;;;;3.90;3.15;;;;;;;;;;4955873;29;20034;-69
2023/10/10 10:44:09;;;;;;;3.45;2.97;;;;;;;;;;4955808;28;20078;-70
2023/10/10 10:46:40;;;;;;;4.35;2.80;;;;;;;;;;4955661;29;20024;-68
2023/10/10 10:49:12;;;;;;;3.05;2.75;;;;;;;;;;4955889;28;20415;-69
2023/10/10 10:51:43;;;;;;;3.60;3.03;;;;;;;;;;4955866;28;20058;-70
2023/10/10 10:54:09;;;;;;;4.82;2.90;;;;;;;;;;4955527;29;20031;-68
2023/10/10 10:59:19;;;;;;;3.45;2.92;;;;;;;;;;4955419;29;20053;-69
2023/10/10 11:01:57;;;;;;;5.63;4.00;;;;;;;;;;4955560;29;20432;-68
2023/10/10 11:07:00;;;;;;;3.25;2.92;;;;;;;;;;4955280;29;20059;-69
2023/10/10 11:09:29;;;;;;;3.42;3.10;;;;;;;;;;4955816;29;20038;-69
2023/10/10 11:12:02;;;;;;;6.37;3.27;;;;;;;;;;4955288;29;20027;-69
2023/10/10 11:14:32;;;;;;;4.72;3.35;;;;;;;;;;4955228;29;20027;-70
2023/10/10 11:16:58;;;;;;;4.53;2.85;;;;;;;;;;4955175;29;20035;-68
2023/10/10 11:19:38;;;;;;;5.22;3.20;;;;;;;;;;4954992;28;20031;-70
2023/10/10 11:22:05;;;;;;;2.88;2.58;;;;;;;;;;4955295;29;20376;-69
2023/10/10 11:24:34;;;;;;;4.38;2.97;;;;;;;;;;4954936;29;20475;-69
2023/10/10 11:29:50;;;;;;;3.28;2.97;;;;;;;;;;4954837;29;20074;-69
2023/10/10 11:32:29;;;;;;;5.47;3.00;;;;;;;;;;4954956;29;20034;-69
2023/10/10 11:35:17;;;;;;;3.33;2.70;;;;;;;;;;4954910;29;20404;-69
2023/10/10 11:37:58;;;;;;;4.03;2.92;;;;;;;;;;4954592;28;20023;-67
2023/10/10 11:43:04;;;;;;;3.40;3.10;;;;;;;;;;4955028;28;20058;-71
2023/10/10 11:45:31;;;;;;;3.13;2.75;;;;;;;;;;4955055;29;20114;-70
2023/10/10 11:48:01;;;;;;;3.28;2.97;;;;;;;;;;4954686;28;20027;-69
2023/10/10 11:50:46;;;;;;;4.53;3.00;;;;;;;;;;4937363;29;20373;-70
2023/10/10 11:53:19;;;;;;;4.45;2.67;;;;;;;;;;4954697;29;20454;-70
2023/10/10 11:55:46;;;;;;;3.33;2.90;;;;;;;;;;4954716;29;20027;-70
2023/10/10 11:58:17;;;;;;;3.40;3.10;;;;;;;;;;4954310;28;20043;-70
2023/10/10 12:00:44;;;;;;;4.82;3.25;;;;;;;;;;4954568;29;20050;-69
2023/10/10 12:03:11;;;;;;;3.17;2.70;;;;;;;;;;4954493;29;20023;-70
2023/10/10 12:05:47;;;;;;;5.07;3.10;;;;;;;;;;4954445;28;20034;-70
2023/10/10 12:08:15;;;;;;;3.10;2.80;;;;;;;;;;4954407;29;20054;-70
2023/10/10 12:10:47;;;;;;;3.05;2.75;;;;;;;;;;4954372;29;20499;-69
2023/10/10 12:13:33;;;;;;;3.35;3.05;;;;;;;;;;4954334;29;20090;-69
2023/10/10 12:16:01;;;;;;;4.03;3.10;;;;;;;;;;4954468;29;20105;-69
2023/10/10 12:18:30;;;;;;;3.63;2.95;;;;;;;;;;4954471;29;20059;-69
2023/10/10 12:21:02;;;;;;;3.00;2.70;;;;;;;;;;4954547;29;20392;-69
2023/10/10 12:23:30;;;;;;;5.47;3.00;;;;;;;;;;4954554;29;20437;-68
2023/10/10 12:25:56;;;;;;;3.28;2.83;;;;;;;;;;4954224;28;20024;-69
2023/10/10 12:28:22;;;;;;;4.18;2.88;;;;;;;;;;4954232;29;20595;-70
2023/10/10 12:30:48;;;;;;;3.42;2.70;;;;;;;;;;4954280;29;20090;-69
2023/10/10 12:33:16;;;;;;;3.03;2.72;;;;;;;;;;4954157;28;20028;-68
2023/10/10 12:35:46;;;;;;;3.80;2.90;;;;;;;;;;4954458;29;20380;-69
2023/10/10 12:38:15;;;;;;;3.85;2.85;;;;;;;;;;4954183;29;20491;-69
2023/10/10 12:40:43;;;;;;;3.92;2.60;;;;;;;;;;4953936;29;20158;-68
2023/10/10 12:43:12;;;;;;;3.45;2.85;;;;;;;;;;4954375;29;20038;-69
2023/10/10 12:45:38;;;;;;;3.30;3.00;;;;;;;;;;4954358;28;20030;-69
2023/10/10 12:48:13;;;;;;;3.88;3.05;;;;;;;;;;4954275;28;20027;-68
2023/10/10 12:50:39;;;;;;;3.25;2.95;;;;;;;;;;4957612;29;20063;-69
2023/10/10 12:53:07;;;;;;;5.50;2.92;;;;;;;;;;4957866;28;20472;-70
2023/10/10 12:55:36;;;;;;;3.33;2.83;;;;;;;;;;4957664;28;20078;-68
2023/10/10 12:58:09;;;;;;;3.10;2.83;;;;;;;;;;4957522;28;20043;-69
2023/10/10 13:00:36;;;;;;;3.40;2.95;;;;;;;;;;4957681;29;20495;-70
2023/10/10 13:03:06;;;;;;;3.00;2.70;;;;;;;;;;4940245;29;20038;-69
2023/10/10 13:05:33;;;;;;;3.60;2.85;;;;;;;;;;4957603;29;20381;-68
2023/10/10 13:07:59;;;;;;;3.05;2.75;;;;;;;;;;4957399;28;20035;-69
2023/10/10 13:10:30;;;;;;;3.47;2.95;;;;;;;;;;4957404;29;20090;-70
2023/10/10 13:12:56;;;;;;;5.25;2.80;;;;;;;;;;4957510;29;20061;-69
2023/10/10 13:15:29;;;;;;;3.58;2.92;;;;;;;;;;4957269;29;20028;-69
2023/10/10 13:18:11;;;;;;;4.20;2.90;;;;;;;;;;4957576;29;20027;-69
2023/10/10 13:20:38;;;;;;;2.90;2.60;;;;;;;;;;4957299;29;20086;-68
2023/10/10 13:23:06;;;;;;;3.60;2.70;;;;;;;;;;4957195;28;20030;-69
2023/10/10 13:25:37;;;;;;;3.10;2.78;;;;;;;;;;4957170;28;20488;-69
2023/10/10 13:28:09;;;;;;;3.45;3.00;;;;;;;;;;4957147;29;20051;-67
2023/10/10 13:30:38;;;;;;;4.88;3.05;;;;;;;;;;4957282;29;20032;-69
2023/10/10 13:33:06;;;;;;;3.20;2.88;;;;;;;;;;4957118;29;20054;-69
2023/10/10 13:35:36;;;;;;;3.05;2.70;;;;;;;;;;4957382;29;20034;-69
2023/10/10 13:38:10;;;;;;;3.30;2.70;;;;;;;;;;4957010;29;20388;-69
2023/10/10 13:40:45;;;;;;;3.35;3.08;;;;;;;;;;4957211;29;20031;-67
2023/10/10 13:43:16;;;;;;;2.90;2.60;;;;;;;;;;4957120;29;20031;-69
2023/10/10 13:45:43;;;;;;;3.70;2.88;;;;;;;;;;4957042;29;20424;-67
2023/10/10 13:48:13;;;;;;;3.08;2.78;;;;;;;;;;4956868;29;20054;-67
2023/10/10 13:50:41;;;;;;;3.08;2.78;;;;;;;;;;4956826;29;20126;-69
2023/10/10 13:53:15;;;;;;;3.42;2.63;;;;;;;;;;4956551;29;20023;-68
2023/10/10 13:55:42;;;;;;;3.42;3.03;;;;;;;;;;4956558;29;20130;-69
2023/10/10 13:58:16;;;;;;;2.88;2.58;;;;;;;;;;4956301;29;20039;-70
2023/10/10 14:00:52;;;;;;;3.40;3.00;;;;;;;;;;4955256;28;20122;-68
2023/10/10 14:03:29;;;;;;;3.83;2.88;;;;;;;;;;4956409;29;20475;-69
2023/10/10 14:06:03;;;;;;;5.38;2.78;;;;;;;;;;4956835;29;20027;-68
2023/10/10 14:08:30;;;;;;;3.00;2.65;;;;;;;;;;4956496;29;20480;-69
2023/10/10 14:11:00;;;;;;;4.50;2.75;;;;;;;;;;4956627;29;20046;-70
2023/10/10 14:13:27;;;;;;;4.00;2.67;;;;;;;;;;4956262;29;20479;-71
2023/10/10 14:16:01;;;;;;;5.38;2.92;;;;;;;;;;4955614;29;20075;-69
2023/10/10 14:18:42;;;;;;;3.88;2.78;;;;;;;;;;4952590;29;20531;-69
2023/10/10 14:21:08;;;;;;;5.15;3.05;;;;;;;;;;4953677;29;20046;-68
2023/10/10 14:23:40;;;;;;;3.03;2.55;;;;;;;;;;4954029;28;20019;-69
2023/10/10 14:26:18;;;;;;;3.85;2.80;;;;;;;;;;4952893;28;20027;-69
2023/10/10 14:28:52;;;;;;;4.10;2.92;;;;;;;;;;4952668;28;20130;-69
2023/10/10 14:31:28;;;;;;;3.88;2.60;;;;;;;;;;4954052;29;20480;-69
2023/10/10 14:33:55;;;;;;;3.28;2.70;;;;;;;;;;4952792;28;20028;-70
2023/10/10 14:36:21;;;;;;;5.22;2.80;;;;;;;;;;4954393;29;20126;-71
2023/10/10 14:38:50;;;;;;;6.05;2.90;;;;;;;;;;4954165;28;20034;-68
2023/10/10 14:41:20;;;;;;;5.07;3.00;;;;;;;;;;4954239;28;20028;-70
2023/10/10 14:43:54;;;;;;;3.28;2.97;;;;;;;;;;4954195;29;20043;-71
2023/10/10 14:46:27;;;;;;;4.25;2.80;;;;;;;;;;4954349;29;20106;-71
2023/10/10 14:49:00;;;;;;;5.20;2.95;;;;;;;;;;4954497;29;20073;-70
2023/10/10 14:51:38;;;;;;;3.40;2.75;;;;;;;;;;4954412;29;20432;-68
2023/10/10 14:54:11;;;;;;;3.55;2.80;;;;;;;;;;4953988;29;20515;-70
2023/10/10 14:56:38;;;;;;;3.53;2.78;;;;;;;;;;4953840;29;20469;-68
2023/10/10 14:59:06;;;;;;;4.22;2.92;;;;;;;;;;4953717;29;20082;-68
2023/10/10 15:01:36;;;;;;;3.38;2.58;;;;;;;;;;4953923;29;20108;-70
2023/10/10 15:04:05;;;;;;;4.38;2.85;;;;;;;;;;4953416;29;20106;-71
2023/10/10 15:06:35;;;;;;;3.40;2.67;;;;;;;;;;4953484;29;20027;-69
2023/10/10 15:09:01;;;;;;;4.10;2.60;;;;;;;;;;4953752;28;20027;-70
2023/10/10 15:11:28;;;;;;;3.00;2.70;;;;;;;;;;4953118;28;20031;-68
2023/10/10 15:14:00;;;;;;;2.90;2.63;;;;;;;;;;4953611;29;20035;-70
2023/10/10 15:16:27;;;;;;;2.97;2.58;;;;;;;;;;4953286;28;20507;-70
2023/10/10 15:18:53;;;;;;;4.30;3.03;;;;;;;;;;4936146;29;20039;-69
2023/10/10 15:21:20;;;;;;;5.13;2.88;;;;;;;;;;4953788;28;20031;-68
2023/10/10 15:23:46;;;;;;;5.18;2.75;;;;;;;;;;4953507;29;20542;-69
2023/10/10 15:26:17;;;;;;;7.15;3.05;;;;;;;;;;4953773;29;20059;-68
2023/10/10 15:28:44;;;;;;;7.20;2.90;;;;;;;;;;4953736;29;20402;-69
2023/10/10 15:31:10;;;;;;;3.97;3.03;;;;;;;;;;4951986;28;20118;-68
2023/10/10 15:33:36;;;;;;;4.95;2.88;;;;;;;;;;4953351;29;20110;-69
2023/10/10 15:36:06;;;;;;;7.57;3.00;;;;;;;;;;4951539;28;20041;-69
2023/10/10 15:38:32;;;;;;;3.28;2.90;;;;;;;;;;4952328;28;20058;-67
2023/10/10 15:40:57;;;;;;;4.60;2.97;;;;;;;;;;4953293;28;20044;-68
2023/10/10 15:43:24;;;;;;;3.20;2.60;;;;;;;;;;4969720;28;20027;-67
2023/10/10 15:45:50;;;;;;;5.47;2.95;;;;;;;;;;4972364;28;20463;-69
2023/10/10 15:48:22;;;;;;;3.05;2.63;;;;;;;;;;4972326;28;20034;-68
2023/10/10 15:50:51;;;;;;;4.57;3.10;;;;;;;;;;4972389;28;20035;-69
2023/10/10 15:53:20;;;;;;;7.65;3.05;;;;;;;;;;4972018;28;20472;-68
2023/10/10 15:55:53;;;;;;;3.55;2.80;;;;;;;;;;4951812;28;20480;-69
2023/10/10 15:58:23;;;;;;;3.83;2.78;;;;;;;;;;4953135;29;20115;-68
2023/10/10 16:00:48;;;;;;;7.43;3.00;;;;;;;;;;4952726;29;20045;-70
2023/10/10 16:03:14;;;;;;;5.47;3.08;;;;;;;;;;4952732;29;20122;-69
2023/10/10 16:05:41;;;;;;;3.70;2.70;;;;;;;;;;4952553;29;20030;-70
2023/10/10 16:08:07;;;;;;;3.40;2.55;;;;;;;;;;4951479;28;20026;-69
2023/10/10 16:10:34;;;;;;;2.95;2.65;;;;;;;;;;4952619;28;20035;-68
2023/10/10 16:13:00;;;;;;;3.95;3.20;;;;;;;;;;4952758;29;20032;-69
2023/10/10 16:15:26;;;;;;;3.00;2.50;;;;;;;;;;4952668;29;20027;-68
2023/10/10 16:17:52;;;;;;;5.63;2.75;;;;;;;;;;4952642;28;20031;-69
2023/10/10 16:20:22;;;;;;;4.55;2.88;;;;;;;;;;4952463;29;20044;-67
2023/10/10 16:22:47;;;;;;;;;;;;;;;;;;4951701;28;20027;-67
2023/10/10 16:25:13;;;;;;;4.90;2.50;;;;;;;;;;4955539;29;19922;-67
2023/10/10 16:27:40;;;;;;;5.65;2.75;;;;;;;;;;4956595;28;20060;-69
2023/10/10 16:30:07;;;;;;;6.97;2.63;;;;;;;;;;4956668;28;20472;-70
2023/10/10 16:32:35;;;;;;;8.43;2.80;;;;;;;;;;4956446;28;20117;-68
2023/10/10 16:35:04;;;;;;;5.63;3.25;;;;;;;;;;4956538;29;20023;-70
2023/10/10 16:37:31;;;;;;;6.15;3.28;;;;;;;;;;4956148;29;20031;-68
2023/10/10 16:39:58;;;;;;;7.03;3.17;;;;;;;;;;4956576;29;20155;-70
2023/10/10 16:42:24;;;;;;;5.78;3.38;;;;;;;;;;4956210;28;20027;-68
2023/10/10 16:44:53;;;;;;;12.20;3.80;;;;;;;;;;4956252;28;20023;-68
2023/10/10 16:47:20;;;;;;;15.02;4.38;;;;;;;;;;4956110;29;20062;-69
2023/10/10 16:49:49;;;;;;;12.30;4.38;;;;;;;;;;4955989;29;20035;-68
2023/10/10 16:52:14;;;;;;;9.65;4.43;;;;;;;;;;4956270;29;20059;-68
2023/10/10 16:54:45;;;;;;;11.90;4.20;;;;;;;;;;4956447;29;20061;-69
2023/10/10 16:57:11;;;;;;;7.28;4.30;;;;;;;;;;4955832;28;20492;-68
2023/10/10 16:59:37;;;;;;;17.98;4.80;;;;;;;;;;4955933;29;20461;-68
2023/10/10 17:02:03;;;;;;;10.30;5.05;;;;;;;;;;4955936;28;20095;-69
2023/10/10 17:04:28;;;;;;;11.02;5.18;;;;;;;;;;4955746;29;20045;-68
2023/10/10 17:06:54;;;;;;;14.07;5.57;;;;;;;;;;4955756;28;20082;-69
2023/10/10 17:09:21;;;;;;;8.65;5.50;;;;;;;;;;4955835;29;20039;-68
2023/10/10 17:11:50;;;;;;;12.60;5.32;;;;;;;;;;4955880;28;20038;-68
2023/10/10 17:14:18;;;;;;;15.00;6.30;;;;;;;;;;4955814;29;20047;-68
2023/10/10 17:16:44;;;;;;;12.20;5.90;;;;;;;;;;4955679;28;20069;-68
2023/10/10 17:19:10;;;;;;;13.63;6.20;;;;;;;;;;4955670;28;20063;-69
2023/10/10 17:21:35;;;;;;;13.27;5.88;;;;;;;;;;4955583;28;20086;-69
2023/10/10 17:24:03;;;;;;;9.18;5.70;;;;;;;;;;4955504;28;20031;-68
2023/10/10 17:26:30;;;;;;;15.77;5.53;;;;;;;;;;4955441;29;20377;-68
2023/10/10 17:28:59;;;;;;;12.60;6.00;;;;;;;;;;4955824;28;20035;-68
2023/10/10 17:31:25;;;;;;;9.23;5.60;;;;;;;;;;4955185;28;20027;-70
2023/10/10 17:33:51;;;;;;;15.27;5.97;;;;;;;;;;4955634;28;20039;-69
2023/10/10 17:36:18;;;;;;;11.20;5.78;;;;;;;;;;4954881;28;20023;-68
2023/10/10 17:38:44;;;;;;;13.85;6.57;;;;;;;;;;4962974;28;20476;-68
2023/10/10 17:41:12;;;;;;;12.43;5.97;;;;;;;;;;4960137;28;20073;-69
2023/10/10 17:43:38;;;;;;;13.85;6.55;;;;;;;;;;4955209;29;20032;-68
2023/10/10 17:46:03;;;;;;;10.18;5.80;;;;;;;;;;4945513;28;20090;-69
2023/10/10 17:48:32;;;;;;;8.98;5.38;;;;;;;;;;4965365;28;20054;-69
2023/10/10 17:50:58;;;;;;;10.75;5.65;;;;;;;;;;4964681;28;20031;-69
2023/10/10 17:53:25;;;;;;;11.38;5.78;;;;;;;;;;4962930;28;20034;-69
2023/10/10 17:55:51;;;;;;;11.05;5.55;;;;;;;;;;4955088;28;20729;-70
2023/10/10 17:58:17;;;;;;;18.40;6.05;;;;;;;;;;4954837;28;20179;-68
2023/10/10 18:00:45;;;;;;;11.93;6.30;;;;;;;;;;4954751;29;20110;-68
2023/10/10 18:03:11;;;;;;;11.25;5.47;;;;;;;;;;4955061;29;20393;-67
2023/10/10 18:05:41;;;;;;;12.48;5.78;;;;;;;;;;4954744;29;20027;-70
2023/10/10 18:08:07;;;;;;;14.38;5.10;;;;;;;;;;4955060;28;20058;-69
2023/10/10 18:10:36;;;;;;;13.65;6.00;;;;;;;;;;4954739;29;20039;-68
2023/10/10 18:13:07;;;;;;;11.82;5.60;;;;;;;;;;4954715;29;20030;-68
2023/10/10 18:15:35;;;;;;;11.68;5.45;;;;;;;;;;4954510;29;20090;-68
2023/10/10 18:18:02;;;;;;;10.07;5.60;;;;;;;;;;4954692;28;20480;-68
2023/10/10 18:20:29;;;;;;;11.70;5.50;;;;;;;;;;4954470;29;20130;-68
2023/10/10 18:22:56;;;;;;;14.30;6.22;;;;;;;;;;4954701;28;20440;-69
2023/10/10 18:25:25;;;;;;;20.20;6.80;;;;;;;;;;4954216;28;20034;-69
2023/10/10 18:27:52;;;;;;;22.50;7.32;;;;;;;;;;4954666;29;20061;-69
2023/10/10 18:30:21;;;;;;;26.38;7.43;;;;;;;;;;4954340;29;20023;-69
2023/10/10 18:32:49;;;;;;;29.40;7.85;;;;;;;;;;4959964;28;20042;-68
2023/10/10 18:35:17;;;;;;;63.08;13.02;;;;;;;;;;4958376;28;20102;-68
2023/10/10 18:37:44;;;;;;;131.68;20.65;;;;;;;;;;4964396;28;20034;-67
2023/10/10 18:40:11;;;;;;;120.45;22.92;;;;;;;;;;4968653;28;20077;-68
2023/10/10 18:42:39;;;;;;;125.90;21.60;;;;;;;;;;4969886;28;20027;-67
2023/10/10 18:45:05;;;;;;;116.63;21.60;;;;;;;;;;4973360;28;20488;-68
2023/10/10 18:47:31;;;;;;;107.55;20.20;;;;;;;;;;4972533;28;20034;-69
2023/10/10 18:49:57;;;;;;;105.45;20.35;;;;;;;;;;4973169;28;20503;-68
2023/10/10 18:52:23;;;;;;;126.40;22.88;;;;;;;;;;4973237;28;20031;-69
2023/10/10 18:54:49;;;;;;;87.38;18.45;;;;;;;;;;4973168;28;20400;-69
2023/10/10 18:57:15;;;;;;;80.55;16.95;;;;;;;;;;4972953;28;20049;-68
2023/10/10 18:59:42;;;;;;;68.50;16.33;;;;;;;;;;4973034;28;20423;-68
2023/10/10 19:02:09;;;;;;;72.93;15.85;;;;;;;;;;4966135;28;20503;-73
2023/10/10 19:04:35;;;;;;;77.10;15.88;;;;;;;;;;4947081;29;20042;-69
2023/10/10 19:07:00;;;;;;;67.03;15.50;;;;;;;;;;4953701;29;20019;-73
2023/10/10 19:09:26;;;;;;;55.53;15.00;;;;;;;;;;4953460;28;20102;-69
2023/10/10 19:11:57;;;;;;;58.90;14.60;;;;;;;;;;4953484;28;20094;-68
2023/10/10 19:14:25;;;;;;;74.50;14.70;;;;;;;;;;4953647;29;20443;-68
2023/10/10 19:16:53;;;;;;;50.28;14.20;;;;;;;;;;4951435;28;20035;-68
2023/10/10 19:19:19;;;;;;;43.15;12.70;;;;;;;;;;4952948;29;20035;-68
2023/10/10 19:21:47;;;;;;;57.22;12.98;;;;;;;;;;4953422;29;20034;-70
2023/10/10 19:24:14;;;;;;;45.78;12.70;;;;;;;;;;4953668;28;20050;-70
2023/10/10 19:26:39;;;;;;;43.97;11.55;;;;;;;;;;4953036;28;20392;-68
2023/10/10 19:29:07;;;;;;;45.65;11.80;;;;;;;;;;4953344;28;20038;-70
2023/10/10 19:31:39;;;;;;;41.30;11.40;;;;;;;;;;4952885;29;20031;-69
2023/10/10 19:34:06;;;;;;;31.92;11.10;;;;;;;;;;4952924;29;20574;-73
2023/10/10 19:36:33;;;;;;;40.58;10.73;;;;;;;;;;4953380;28;20144;-71
2023/10/10 19:38:59;;;;;;;34.75;10.00;;;;;;;;;;4953119;28;20035;-69
2023/10/10 19:41:25;;;;;;;44.20;10.32;;;;;;;;;;4952584;28;20030;-69
2023/10/10 19:43:51;;;;;;;38.63;10.50;;;;;;;;;;4953064;29;20090;-71
2023/10/10 19:46:19;;;;;;;39.50;9.50;;;;;;;;;;4953259;29;20031;-70
2023/10/10 19:48:46;;;;;;;30.52;9.90;;;;;;;;;;4952601;29;20037;-69
2023/10/10 19:51:18;;;;;;;35.28;9.10;;;;;;;;;;4952993;29;20513;-68
2023/10/10 19:53:58;;;;;;;32.88;9.00;;;;;;;;;;4952749;29;20031;-74
2023/10/10 19:56:24;;;;;;;28.92;9.00;;;;;;;;;;4935142;29;20055;-74
2023/10/10 19:58:49;;;;;;;30.05;8.13;;;;;;;;;;4952626;28;20039;-68
2023/10/10 20:01:18;;;;;;;24.92;8.38;;;;;;;;;;4953128;28;20480;-70
2023/10/10 20:03:45;;;;;;;37.75;9.70;;;;;;;;;;4952838;29;20726;-70
2023/10/10 20:06:21;;;;;;;39.50;10.15;;;;;;;;;;4936057;29;20039;-70
2023/10/10 20:08:48;;;;;;;30.83;9.85;;;;;;;;;;4952745;29;20151;-68
2023/10/10 20:11:14;;;;;;;32.78;9.45;;;;;;;;;;4952559;29;20027;-69
2023/10/10 20:13:40;;;;;;;32.53;9.02;;;;;;;;;;4951152;28;20042;-69
2023/10/10 20:16:16;;;;;;;30.35;9.45;;;;;;;;;;4952329;29;20031;-69
2023/10/10 20:18:45;;;;;;;25.75;8.07;;;;;;;;;;4935518;29;20038;-70
2023/10/10 20:21:13;;;;;;;22.80;8.77;;;;;;;;;;4952590;28;20030;-71
2023/10/10 20:23:42;;;;;;;30.30;8.50;;;;;;;;;;4952465;29;20031;-68
2023/10/10 20:26:14;;;;;;;20.70;7.95;;;;;;;;;;4952820;29;20032;-69
2023/10/10 20:28:41;;;;;;;21.40;8.43;;;;;;;;;;4952428;28;20033;-69
2023/10/10 20:31:11;;;;;;;18.48;7.55;;;;;;;;;;4952428;28;20031;-69
2023/10/10 20:33:37;;;;;;;17.98;7.35;;;;;;;;;;4952585;29;20120;-68
2023/10/10 20:36:04;;;;;;;19.25;7.28;;;;;;;;;;4952721;29;20134;-68
2023/10/10 20:38:30;;;;;;;24.33;7.05;;;;;;;;;;4952453;28;20070;-68
2023/10/10 20:40:57;;;;;;;18.48;7.07;;;;;;;;;;4952451;28;20070;-68
2023/10/10 20:43:23;;;;;;;22.50;7.53;;;;;;;;;;4952073;28;20035;-69
2023/10/10 20:45:49;;;;;;;18.00;6.50;;;;;;;;;;4950745;29;20098;-68
2023/10/10 20:48:23;;;;;;;15.18;5.95;;;;;;;;;;4952616;29;20031;-69
2023/10/10 20:50:49;;;;;;;20.70;6.82;;;;;;;;;;4952286;29;20039;-69
2023/10/10 20:53:16;;;;;;;14.80;6.50;;;;;;;;;;4952030;28;20038;-68
2023/10/10 20:55:46;;;;;;;18.35;6.57;;;;;;;;;;4953302;28;20480;-68
2023/10/10 20:58:12;;;;;;;12.63;5.53;;;;;;;;;;4952178;29;20143;-68
2023/10/10 21:00:39;;;;;;;16.08;6.18;;;;;;;;;;4952216;29;20032;-68
2023/10/10 21:03:08;;;;;;;18.23;6.50;;;;;;;;;;4952299;29;20483;-69
2023/10/10 21:05:35;;;;;;;14.07;5.78;;;;;;;;;;4952151;29;20027;-70
2023/10/10 21:08:02;;;;;;;13.63;6.22;;;;;;;;;;4952178;29;20019;-69
2023/10/10 21:10:31;;;;;;;16.55;5.80;;;;;;;;;;4953927;28;20016;-70
2023/10/10 21:12:57;;;;;;;14.63;6.18;;;;;;;;;;4955789;28;20031;-68
2023/10/10 21:15:23;;;;;;;18.80;6.35;;;;;;;;;;4955752;29;20023;-70
2023/10/10 21:17:53;;;;;;;14.73;5.88;;;;;;;;;;4955846;28;20244;-69
2023/10/10 21:20:30;;;;;;;;;;;;;;;;;;4956059;29;20074;-67
2023/10/10 21:22:58;;;;;;;11.90;5.32;;;;;;;;;;4955722;29;19918;-67
2023/10/10 21:25:25;;;;;;;15.23;6.03;;;;;;;;;;4955560;29;20467;-69
2023/10/10 21:27:54;;;;;;;18.77;5.68;;;;;;;;;;4955792;29;20081;-67
2023/10/10 21:30:21;;;;;;;23.88;7.07;;;;;;;;;;4938277;29;20035;-69
2023/10/10 21:32:47;;;;;;;17.98;6.07;;;;;;;;;;4955505;29;20447;-69
2023/10/10 21:35:13;;;;;;;16.02;5.82;;;;;;;;;;4955172;29;20106;-69
2023/10/10 21:37:39;;;;;;;20.98;6.45;;;;;;;;;;4954153;28;20531;-69
2023/10/10 21:40:12;;;;;;;16.02;6.53;;;;;;;;;;4964874;28;20050;-67
2023/10/10 21:42:43;;;;;;;16.58;6.35;;;;;;;;;;4961561;28;20022;-67
2023/10/10 21:45:09;;;;;;;17.50;6.80;;;;;;;;;;4963660;28;20021;-67
2023/10/10 21:47:35;;;;;;;20.08;6.93;;;;;;;;;;4960720;28;20480;-67
2023/10/10 21:50:12;;;;;;;20.85;7.03;;;;;;;;;;4947183;28;20569;-67
2023/10/10 21:52:40;;;;;;;14.07;6.05;;;;;;;;;;4959030;28;20666;-67
2023/10/10 21:55:10;;;;;;;22.67;7.03;;;;;;;;;;4955128;29;20059;-69
2023/10/10 21:57:37;;;;;;;21.75;7.10;;;;;;;;;;4954836;29;20058;-67
2023/10/10 22:00:16;;;;;;;21.30;7.05;;;;;;;;;;4954996;28;20412;-67
2023/10/10 22:02:44;;;;;;;14.60;6.85;;;;;;;;;;4954876;29;20039;-66
2023/10/10 22:05:10;;;;;;;15.20;6.45;;;;;;;;;;4955150;29;20062;-66
2023/10/10 22:07:35;;;;;;;16.75;6.85;;;;;;;;;;4954754;29;20031;-69
2023/10/10 22:10:07;;;;;;;11.98;5.90;;;;;;;;;;4954814;29;20030;-67
2023/10/10 22:12:35;;;;;;;18.58;6.20;;;;;;;;;;4953360;28;20118;-67
2023/10/10 22:15:07;;;;;;;13.45;5.70;;;;;;;;;;4954204;28;20030;-67
2023/10/10 22:17:35;;;;;;;16.75;5.90;;;;;;;;;;4954616;29;20117;-67
2023/10/10 22:20:03;;;;;;;14.77;6.10;;;;;;;;;;4954829;28;20050;-67
2023/10/10 22:22:31;;;;;;;13.35;5.45;;;;;;;;;;4953417;28;20071;-67
2023/10/10 22:24:57;;;;;;;15.98;6.03;;;;;;;;;;4954488;29;20031;-67
2023/10/10 22:27:23;;;;;;;12.98;6.03;;;;;;;;;;4954282;28;20051;-66
2023/10/10 22:29:48;;;;;;;13.45;6.00;;;;;;;;;;4954375;29;20039;-66
2023/10/10 22:32:15;;;;;;;15.25;5.13;;;;;;;;;;4954294;28;20027;-66
2023/10/10 22:34:41;;;;;;;11.65;5.18;;;;;;;;;;4954311;28;20030;-67
2023/10/10 22:37:06;;;;;;;14.73;5.65;;;;;;;;;;4963167;28;20030;-66
2023/10/10 22:39:34;;;;;;;16.38;6.00;;;;;;;;;;4951771;28;20631;-66
2023/10/10 22:42:01;;;;;;;14.20;5.95;;;;;;;;;;4942910;29;20791;-67
2023/10/10 22:44:29;;;;;;;14.05;5.00;;;;;;;;;;4944478;29;20309;-66
2023/10/10 22:46:56;;;;;;;13.18;5.40;;;;;;;;;;4944325;29;20046;-66
2023/10/10 22:49:21;;;;;;;18.58;6.03;;;;;;;;;;4944180;29;20055;-67
2023/10/10 22:51:47;;;;;;;15.23;5.35;;;;;;;;;;4946216;29;20147;-66
2023/10/10 22:54:13;;;;;;;13.27;5.05;;;;;;;;;;4945549;29;20484;-66
2023/10/10 22:56:39;;;;;;;12.32;4.97;;;;;;;;;;4946353;28;20047;-66
2023/10/10 22:59:07;;;;;;;10.43;4.90;;;;;;;;;;4944941;29;20055;-67
2023/10/10 23:01:33;;;;;;;11.48;5.35;;;;;;;;;;4944787;29;20046;-67
2023/10/10 23:03:59;;;;;;;11.30;5.10;;;;;;;;;;4946268;29;20047;-66
2023/10/10 23:06:24;;;;;;;12.45;4.75;;;;;;;;;;4944841;29;20051;-66
2023/10/10 23:08:50;;;;;;;16.38;5.53;;;;;;;;;;4944878;29;20538;-66
2023/10/10 23:11:16;;;;;;;15.50;4.93;;;;;;;;;;4946137;29;20476;-66
2023/10/10 23:13:43;;;;;;;13.30;5.05;;;;;;;;;;4944372;29;20488;-67
2023/10/10 23:16:19;;;;;;;9.10;4.97;;;;;;;;;;4944955;29;20035;-67
2023/10/10 23:18:45;;;;;;;7.70;4.68;;;;;;;;;;4946107;29;20019;-66
2023/10/10 23:21:11;;;;;;;9.45;4.80;;;;;;;;;;4954951;28;20018;-67
2023/10/10 23:23:37;;;;;;;15.10;4.90;;;;;;;;;;4964168;28;20031;-66
2023/10/10 23:26:03;;;;;;;11.25;5.00;;;;;;;;;;4959122;28;20020;-67
2023/10/10 23:28:31;;;;;;;9.73;4.70;;;;;;;;;;4945217;28;20122;-67
2023/10/10 23:30:57;;;;;;;9.48;4.78;;;;;;;;;;4961307;28;20369;-68
2023/10/10 23:33:23;;;;;;;10.77;4.80;;;;;;;;;;4961733;28;20034;-66